Time;durP1;ratioP1;P1;durP2;ratioP2;P2;SDS_P1;SDS_P2;PMS_P1;PMS_P2;Temp;Humidity;BMP_temperature;BMP_pressure;BME280_temperature;BME280_humidity;BME280_pressure;Samples;Min_cycle;Max_cycle;Signal;HPM_P1;HPM_P2
2024/01/06 17:32:42;;;;;;;43.40;22.17;;;2.50;99.90;;;;;;5021598;27;2122665;-55
2024/01/06 17:35:08;;;;;;;56.15;27.40;;;2.40;99.90;;;;;;5085415;28;20028;-54
2024/01/06 17:37:34;;;;;;;54.80;27.85;;;2.50;99.90;;;;;;5083688;28;20519;-54
2024/01/06 17:40:00;;;;;;;50.95;28.63;;;2.40;99.90;;;;;;5082676;28;20028;-53
2024/01/06 17:42:25;;;;;;;56.65;29.83;;;2.30;99.90;;;;;;5072802;28;20028;-52
2024/01/06 17:44:52;;;;;;;52.80;29.02;;;2.30;99.90;;;;;;5072578;28;20028;-54
2024/01/06 17:47:18;;;;;;;53.73;30.57;;;2.30;99.90;;;;;;5069601;28;20028;-53
2024/01/06 17:49:44;;;;;;;56.05;29.17;;;2.30;99.90;;;;;;5073002;28;20067;-55
2024/01/06 17:52:11;;;;;;;57.47;30.02;;;2.30;99.90;;;;;;5071861;28;20585;-54
2024/01/06 17:54:39;;;;;;;53.63;27.45;;;2.30;99.90;;;;;;5073350;28;20421;-54
2024/01/06 17:57:05;;;;;;;48.38;27.23;;;2.30;99.90;;;;;;5073504;28;20028;-54
2024/01/06 17:59:31;;;;;;;45.55;26.20;;;2.30;99.90;;;;;;5070822;28;20813;-52
2024/01/06 18:01:59;;;;;;;45.35;25.35;;;2.20;99.90;;;;;;5071890;28;20051;-55
2024/01/06 18:04:25;;;;;;;46.28;24.63;;;2.30;99.90;;;;;;5072024;28;20066;-53
2024/01/06 18:06:51;;;;;;;41.50;21.67;;;2.30;99.90;;;;;;5072478;28;20020;-55
2024/01/06 18:09:19;;;;;;;40.72;22.42;;;2.30;99.90;;;;;;5071098;28;20892;-52
2024/01/06 18:11:47;;;;;;;44.72;23.92;;;2.30;99.90;;;;;;5072932;28;20548;-56
2024/01/06 18:14:16;;;;;;;46.28;25.52;;;2.30;99.90;;;;;;5071748;28;20491;-54
2024/01/06 18:16:42;;;;;;;45.80;24.23;;;2.20;99.90;;;;;;5073303;28;20024;-53
2024/01/06 18:19:08;;;;;;;40.63;22.88;;;2.30;99.90;;;;;;5072075;28;20024;-55
2024/01/06 18:21:33;;;;;;;42.63;24.27;;;2.30;99.90;;;;;;5070909;28;20058;-54
2024/01/06 18:23:59;;;;;;;48.60;25.92;;;2.20;99.90;;;;;;5072900;28;20107;-53
2024/01/06 18:26:25;;;;;;;52.20;27.75;;;2.30;99.90;;;;;;5072819;28;20025;-55
2024/01/06 18:28:51;;;;;;;50.17;26.80;;;2.20;99.90;;;;;;5071126;28;20068;-53
2024/01/06 18:31:17;;;;;;;48.90;26.80;;;2.20;99.90;;;;;;5064386;28;20087;-53
2024/01/06 18:33:43;;;;;;;49.65;26.63;;;2.10;99.90;;;;;;5070176;28;20036;-55
2024/01/06 18:36:08;;;;;;;50.88;27.42;;;2.10;99.90;;;;;;5071137;28;20376;-53
2024/01/06 18:38:34;;;;;;;46.55;26.70;;;2.10;99.90;;;;;;5072096;28;20035;-55
2024/01/06 18:41:01;;;;;;;48.65;27.60;;;2.20;99.90;;;;;;5072203;28;20021;-55
2024/01/06 18:43:27;;;;;;;47.50;26.27;;;2.10;99.90;;;;;;5060899;28;20484;-53
2024/01/06 18:45:53;;;;;;;51.45;26.48;;;2.00;99.90;;;;;;5057229;28;20384;-53
2024/01/06 18:48:19;;;;;;;43.00;25.00;;;2.10;99.90;;;;;;5059333;28;20024;-54
2024/01/06 18:50:46;;;;;;;45.65;24.80;;;2.10;99.90;;;;;;5057910;28;20307;-54
2024/01/06 18:53:13;;;;;;;47.40;22.88;;;2.00;99.90;;;;;;5051744;28;20091;-52
2024/01/06 18:55:39;;;;;;;43.95;24.23;;;2.00;99.90;;;;;;5053180;28;20120;-55
2024/01/06 18:58:05;;;;;;;43.42;22.30;;;2.00;99.90;;;;;;5048093;28;20077;-53
2024/01/06 19:00:31;;;;;;;45.58;23.85;;;2.00;99.90;;;;;;5055800;28;20052;-54
2024/01/06 19:02:57;;;;;;;38.80;20.73;;;2.00;99.90;;;;;;5052133;28;20027;-53
2024/01/06 19:05:23;;;;;;;39.93;22.67;;;2.00;99.90;;;;;;5052331;28;20017;-54
2024/01/06 19:07:49;;;;;;;41.40;21.73;;;1.90;99.90;;;;;;5052703;28;20051;-54
2024/01/06 19:10:14;;;;;;;42.92;23.95;;;1.90;99.90;;;;;;5064997;28;20033;-54
2024/01/06 19:12:40;;;;;;;51.08;26.27;;;2.00;99.90;;;;;;5067395;28;20036;-54
2024/01/06 19:15:06;;;;;;;52.00;27.45;;;2.00;99.90;;;;;;5057100;28;20488;-53
2024/01/06 19:17:33;;;;;;;;;;;2.00;99.90;;;;;;5054611;28;20111;-55
2024/01/06 19:20:00;;;;;;;46.25;25.60;;;1.90;99.90;;;;;;5061079;28;20073;-56
2024/01/06 19:22:26;;;;;;;47.03;25.23;;;1.90;99.90;;;;;;5055862;28;20112;-54
2024/01/06 19:24:52;;;;;;;48.22;24.25;;;1.80;99.90;;;;;;5057081;28;20107;-53
2024/01/06 19:27:17;;;;;;;46.70;24.27;;;1.90;99.90;;;;;;5057803;28;20509;-55
2024/01/06 19:29:46;;;;;;;42.25;22.80;;;1.90;99.90;;;;;;5059669;28;20054;-53
2024/01/06 19:32:12;;;;;;;45.72;23.88;;;1.80;99.90;;;;;;5056587;28;20140;-54
2024/01/06 19:34:37;;;;;;;57.35;28.08;;;1.80;99.90;;;;;;5047800;28;20107;-54
2024/01/06 19:37:04;;;;;;;52.95;27.40;;;1.80;99.90;;;;;;5058417;28;20021;-56
2024/01/06 19:39:30;;;;;;;56.67;26.65;;;1.70;99.90;;;;;;5056269;28;20025;-55
2024/01/06 19:41:57;;;;;;;46.60;23.88;;;1.70;99.90;;;;;;5057906;28;20028;-57
2024/01/06 19:44:23;;;;;;;;;;;1.60;99.90;;;;;;5058743;28;20025;-54
2024/01/06 19:46:49;;;;;;;40.22;20.65;;;1.60;99.90;;;;;;5056964;28;19909;-55
2024/01/06 19:49:15;;;;;;;43.85;21.35;;;1.60;99.90;;;;;;5057663;28;20102;-54
2024/01/06 19:51:44;;;;;;;39.67;21.23;;;1.60;99.90;;;;;;5057309;28;20037;-57
2024/01/06 19:54:11;;;;;;;36.05;20.52;;;1.60;99.90;;;;;;5055575;28;20582;-54
2024/01/06 19:56:36;;;;;;;37.63;20.13;;;1.60;99.90;;;;;;5060241;28;20040;-58
2024/01/06 19:59:02;;;;;;;39.40;21.83;;;1.60;99.90;;;;;;5058597;28;20353;-56
2024/01/06 20:01:28;;;;;;;35.20;21.52;;;1.60;99.90;;;;;;5064262;28;20630;-56
2024/01/06 20:03:53;;;;;;;48.78;26.52;;;1.60;99.90;;;;;;5058585;28;20025;-58
2024/01/06 20:06:19;;;;;;;51.38;25.33;;;1.60;99.90;;;;;;5049940;28;20139;-53
2024/01/06 20:08:44;;;;;;;43.95;23.50;;;1.60;99.90;;;;;;5045375;28;20064;-55
2024/01/06 20:11:11;;;;;;;42.08;20.35;;;1.60;99.90;;;;;;5057180;28;20064;-55
2024/01/06 20:13:36;;;;;;;33.33;19.27;;;1.60;99.90;;;;;;5060144;28;20128;-55
2024/01/06 20:16:03;;;;;;;36.90;20.03;;;1.50;99.90;;;;;;5061138;28;20032;-57
2024/01/06 20:18:29;;;;;;;37.72;21.60;;;1.50;99.90;;;;;;5062388;28;20125;-56
2024/01/06 20:20:55;;;;;;;38.28;20.33;;;1.50;99.90;;;;;;5061544;28;20128;-56
2024/01/06 20:23:22;;;;;;;37.15;19.02;;;1.50;99.90;;;;;;5060357;28;20111;-56
2024/01/06 20:25:49;;;;;;;35.33;19.48;;;1.50;99.90;;;;;;5062145;28;20029;-58
2024/01/06 20:28:14;;;;;;;40.75;21.08;;;1.50;99.90;;;;;;5061599;28;20435;-55
2024/01/06 20:30:40;;;;;;;37.42;21.38;;;1.50;99.90;;;;;;5061889;28;20063;-58
2024/01/06 20:33:06;;;;;;;43.65;21.85;;;1.50;99.90;;;;;;5061941;28;20323;-56
2024/01/06 20:35:33;;;;;;;40.72;22.00;;;1.60;99.90;;;;;;5061541;28;20028;-56
2024/01/06 20:37:59;;;;;;;40.53;21.25;;;1.60;99.90;;;;;;5061248;28;20464;-54
2024/01/06 20:40:26;;;;;;;42.10;21.33;;;1.50;99.90;;;;;;5062026;28;20056;-55
2024/01/06 20:42:51;;;;;;;;;;;1.50;99.90;;;;;;5052565;28;20040;-56
2024/01/06 20:45:25;;;;;;;41.22;21.63;;;1.50;99.90;;;;;;5052745;28;20554;-55
2024/01/06 20:47:51;;;;;;;37.15;20.40;;;1.50;99.90;;;;;;5054134;28;20040;-61
2024/01/06 20:50:19;;;;;;;36.93;19.93;;;1.50;99.90;;;;;;5059531;28;20028;-56
2024/01/06 20:52:45;;;;;;;36.17;20.85;;;1.50;99.90;;;;;;5061756;28;20770;-55
2024/01/06 20:55:12;;;;;;;42.40;21.98;;;1.50;99.90;;;;;;5061650;28;20025;-55
2024/01/06 20:57:37;;;;;;;38.28;20.38;;;1.50;99.90;;;;;;5061356;28;20123;-54
2024/01/06 21:00:04;;;;;;;33.63;20.88;;;1.50;99.90;;;;;;5061773;28;20123;-54
2024/01/06 21:02:30;;;;;;;37.65;20.75;;;1.50;99.90;;;;;;5060960;28;20024;-56
2024/01/06 21:04:59;;;;;;;37.78;20.65;;;1.40;99.90;;;;;;5061558;28;20039;-56
2024/01/06 21:07:24;;;;;;;35.10;19.60;;;1.40;99.90;;;;;;5046084;28;20020;-54
2024/01/06 21:09:50;;;;;;;38.97;21.77;;;1.40;99.90;;;;;;5049455;28;20032;-56
2024/01/06 21:12:16;;;;;;;42.22;22.20;;;1.50;99.90;;;;;;5050196;28;20029;-56
2024/01/06 21:14:41;;;;;;;37.22;21.15;;;1.50;99.90;;;;;;5060253;28;20388;-55
2024/01/06 21:17:08;;;;;;;39.15;19.52;;;1.40;99.90;;;;;;5062141;28;20016;-54
2024/01/06 21:19:33;;;;;;;35.22;19.83;;;1.40;99.90;;;;;;5044555;28;20343;-56
2024/01/06 21:21:59;;;;;;;34.53;19.65;;;1.30;99.90;;;;;;5056782;28;20503;-53
2024/01/06 21:24:25;;;;;;;36.53;20.65;;;1.40;99.90;;;;;;5056087;28;20573;-53
2024/01/06 21:26:51;;;;;;;34.50;18.20;;;1.40;99.90;;;;;;5054954;28;20418;-55
2024/01/06 21:29:18;;;;;;;32.80;18.30;;;1.40;99.90;;;;;;5065565;28;20072;-58
2024/01/06 21:31:44;;;;;;;30.08;16.55;;;1.30;99.90;;;;;;5043899;28;20135;-53
2024/01/06 21:34:09;;;;;;;32.72;17.52;;;1.20;99.90;;;;;;5047413;28;20913;-54
2024/01/06 21:36:38;;;;;;;31.08;18.35;;;1.10;99.90;;;;;;5043996;28;20025;-55
2024/01/06 21:39:05;;;;;;;33.15;18.10;;;1.20;99.90;;;;;;5056052;28;20037;-54
2024/01/06 21:41:30;;;;;;;39.88;21.48;;;1.20;99.90;;;;;;5065089;28;20035;-55
2024/01/06 21:43:56;;;;;;;36.55;18.73;;;1.20;99.90;;;;;;5065505;28;20029;-54
2024/01/06 21:46:22;;;;;;;31.70;17.23;;;1.10;99.90;;;;;;5063900;28;20060;-55
2024/01/06 21:48:48;;;;;;;36.90;19.23;;;1.10;99.90;;;;;;5053810;28;20116;-57
2024/01/06 21:51:17;;;;;;;31.67;18.05;;;1.10;99.90;;;;;;5043643;28;20041;-54
2024/01/06 21:53:43;;;;;;;32.30;17.83;;;1.20;99.90;;;;;;5056104;28;20029;-53
2024/01/06 21:56:08;;;;;;;36.05;19.75;;;1.10;99.90;;;;;;5054531;28;20032;-54
2024/01/06 21:58:34;;;;;;;36.63;18.58;;;1.10;99.90;;;;;;5055467;28;20601;-55
2024/01/06 22:01:00;;;;;;;34.55;20.15;;;1.00;99.90;;;;;;5056296;28;20052;-55
2024/01/06 22:03:25;;;;;;;40.95;20.15;;;1.10;99.90;;;;;;5053979;28;20028;-56
2024/01/06 22:05:51;;;;;;;36.20;20.48;;;1.10;99.90;;;;;;5056042;28;20021;-56
2024/01/06 22:08:17;;;;;;;35.95;19.17;;;1.10;99.90;;;;;;5056086;28;20024;-57
2024/01/06 22:10:42;;;;;;;39.63;21.25;;;1.10;99.90;;;;;;5054651;28;20027;-53
2024/01/06 22:13:08;;;;;;;39.97;21.65;;;1.10;99.90;;;;;;5056395;28;20032;-54
2024/01/06 22:15:34;;;;;;;38.00;20.63;;;1.10;99.90;;;;;;5054653;28;20550;-54
2024/01/06 22:17:59;;;;;;;35.67;21.58;;;1.10;99.90;;;;;;5056396;28;20027;-54
2024/01/06 22:20:32;;;;;;;37.60;21.05;;;1.00;99.90;;;;;;5060596;28;20363;-55
2024/01/06 22:22:57;;;;;;;33.25;19.88;;;0.90;99.90;;;;;;5062122;28;20032;-57
2024/01/06 22:25:23;;;;;;;35.40;19.58;;;0.90;99.90;;;;;;5067997;28;20106;-54
2024/01/06 22:27:48;;;;;;;47.45;24.77;;;0.80;99.90;;;;;;5064338;28;20124;-55
2024/01/06 22:30:16;;;;;;;43.83;22.75;;;0.80;99.90;;;;;;5045082;28;20024;-55
2024/01/06 22:32:42;;;;;;;39.10;20.95;;;0.80;99.90;;;;;;5058251;28;20641;-53
2024/01/06 22:35:08;;;;;;;33.75;20.27;;;0.60;99.90;;;;;;5042841;28;20063;-56
2024/01/06 22:37:34;;;;;;;35.20;19.07;;;0.70;99.90;;;;;;5059831;28;20380;-54
2024/01/06 22:40:00;;;;;;;36.30;20.20;;;0.60;99.90;;;;;;5047866;28;20273;-54
2024/01/06 22:42:25;;;;;;;31.80;19.02;;;0.70;99.90;;;;;;5058809;28;20032;-54
2024/01/06 22:44:51;;;;;;;35.75;19.38;;;0.70;99.90;;;;;;5049379;28;20032;-55
2024/01/06 22:47:17;;;;;;;36.78;20.13;;;0.70;99.90;;;;;;5057438;28;20025;-55
2024/01/06 22:49:43;;;;;;;36.40;18.65;;;0.70;99.90;;;;;;5058782;28;20024;-56
2024/01/06 22:52:10;;;;;;;36.80;19.80;;;0.80;99.90;;;;;;5058856;28;20032;-53
2024/01/06 22:54:36;;;;;;;;;;;0.70;99.90;;;;;;5057442;28;20540;-54
2024/01/06 22:57:02;;;;;;;38.55;21.33;;;0.80;99.90;;;;;;5040852;28;20049;-56
2024/01/06 22:59:27;;;;;;;39.45;20.55;;;0.80;99.90;;;;;;5058314;28;20124;-56
2024/01/06 23:01:54;;;;;;;37.08;20.23;;;0.80;99.90;;;;;;5057488;28;20033;-55
2024/01/06 23:04:19;;;;;;;33.50;18.23;;;0.70;99.90;;;;;;5045106;28;20025;-53
2024/01/06 23:06:49;;;;;;;31.63;18.05;;;0.60;99.90;;;;;;5058711;28;20020;-55
2024/01/06 23:09:19;;;;;;;30.00;18.15;;;0.50;99.90;;;;;;5058622;28;20029;-54
2024/01/06 23:11:45;;;;;;;33.58;17.95;;;0.50;99.90;;;;;;5020958;28;20459;-54
2024/01/06 23:14:10;;;;;;;29.77;17.13;;;0.50;99.90;;;;;;5059602;28;20060;-53
2024/01/06 23:16:36;;;;;;;31.83;18.08;;;0.40;99.90;;;;;;5057444;28;20028;-55
2024/01/06 23:19:02;;;;;;;31.70;18.02;;;0.40;99.90;;;;;;5057669;28;20483;-53
2024/01/06 23:21:28;;;;;;;34.78;17.45;;;0.40;99.90;;;;;;5058861;28;20035;-56
2024/01/06 23:23:55;;;;;;;34.92;18.38;;;0.40;99.90;;;;;;5057205;28;20020;-55
2024/01/06 23:26:21;;;;;;;35.13;17.95;;;0.40;99.90;;;;;;5057313;28;20031;-54
2024/01/06 23:28:46;;;;;;;35.85;18.55;;;0.40;99.90;;;;;;5048965;28;20028;-54
2024/01/06 23:31:12;;;;;;;31.30;18.10;;;0.40;99.90;;;;;;5056226;28;20052;-54
2024/01/06 23:33:39;;;;;;;34.65;18.75;;;0.40;99.90;;;;;;5057722;28;20017;-54
2024/01/06 23:36:05;;;;;;;33.42;18.15;;;0.40;99.90;;;;;;5058622;28;20112;-55
2024/01/06 23:38:31;;;;;;;38.78;19.63;;;0.40;99.90;;;;;;5056851;28;20117;-55
2024/01/06 23:40:56;;;;;;;42.35;20.88;;;0.40;99.90;;;;;;5054141;28;20059;-54
2024/01/06 23:43:22;;;;;;;37.85;19.17;;;0.30;99.90;;;;;;5058649;28;20441;-54
2024/01/06 23:45:48;;;;;;;38.85;21.40;;;0.40;99.90;;;;;;5060324;28;21107;-53
2024/01/06 23:48:13;;;;;;;38.85;21.08;;;0.50;99.90;;;;;;5056244;28;20073;-53
2024/01/06 23:50:39;;;;;;;39.90;20.50;;;0.50;99.90;;;;;;5056467;28;20029;-55
2024/01/06 23:53:05;;;;;;;40.10;21.52;;;0.40;99.90;;;;;;5048672;28;20021;-54
2024/01/06 23:55:30;;;;;;;42.78;19.92;;;0.30;99.90;;;;;;5055747;28;20045;-57
2024/01/06 23:57:56;;;;;;;35.90;18.42;;;0.10;99.90;;;;;;5058004;28;20024;-54
